Latest Weather Observations for Gympie

IDQ60801

Issued at 10:05 am EST Friday 18 April 2014 (issued every 30 minutes, with the page automatically refreshed every 10 minutes)

About weather observations | Map of weather stations | Latest weather observations for QLD | Other Formats
Station Details ID: 040093 Name: GYMPIE Lat: -26.18 Lon: 152.64 Height: 64.5 m
Data from the previous 72 hours. | See also: Recent months at Gympie
Date/Time
EST
Temp
°C
App
Temp
°C
Dew
Point
Rel
Hum
%
Delta-T
°C
Wind Press
QNH
hPa
Press
MSL
hPa
Rain
since 9 am
mm
Dir
 
Spd
km/h
Gust
km/h
Spd
kts
Gust
kts
18/10:00am 22.4 24.5 17.1 72 3.3 S 2 6 1 3 1017.2 1017.0 0.0
18/09:30am 20.9 23.3 17.1 79 2.3 WSW 0 0 0 0 1017.5 - 0.0
18/09:00am 19.5 22.1 17.6 89 1.2 WSW 0 4 0 2 1017.5 1017.3 0.0
18/08:30am 16.8 18.5 16.3 97 0.3 ESE 2 4 1 2 1017.5 - 0.0
18/08:00am 16.3 17.9 16.0 98 0.2 SSE 2 4 1 2 1017.4 1017.2 0.0
18/07:30am 15.5 17.2 15.2 98 0.2 CALM 0 0 0 0 1017.3 - 0.0
18/07:00am 15.3 16.9 15.0 98 0.2 CALM 0 0 0 0 1017.0 1016.8 0.0
18/06:30am 15.2 16.8 14.9 98 0.2 CALM 0 0 0 0 1017.0 - 0.0
18/06:00am 14.9 16.4 14.6 98 0.2 N 0 0 0 0 1016.9 1016.7 0.0
18/05:30am 14.3 15.5 13.8 97 0.3 CALM 0 0 0 0 1016.7 - 0.0
18/05:00am 14.9 16.3 14.4 97 0.3 CALM 0 0 0 0 1016.6 1016.4 0.0
18/04:30am 15.1 16.6 14.6 97 0.3 CALM 0 0 0 0 1016.6 - 0.0
18/04:00am 15.1 16.6 14.6 97 0.3 CALM 0 0 0 0 1016.5 1016.3 0.0
18/03:30am 15.2 16.7 14.7 97 0.3 CALM 0 0 0 0 1016.4 - 0.0
18/03:00am 15.1 16.5 14.5 96 0.3 CALM 0 0 0 0 1016.5 1016.3 0.0
18/02:30am 15.7 17.4 15.1 96 0.3 CALM 0 0 0 0 1016.6 - 0.0
18/02:00am 15.9 17.6 15.3 96 0.3 CALM 0 0 0 0 1016.7 1016.5 0.0
18/01:30am 16.2 18.0 15.4 95 0.5 CALM 0 0 0 0 1016.9 - 0.0
18/01:00am 16.7 18.6 15.7 94 0.6 CALM 0 0 0 0 1017.4 1017.2 0.0
18/12:30am 16.8 18.7 15.8 94 0.6 CALM 0 0 0 0 1017.4 - 0.0
18/12:00am 17.0 19.0 16.0 94 0.6 SE 0 0 0 0 1017.8 1017.6 0.0
 
Date/Time
EST
Temp
°C
App
Temp
°C
Dew
Point
Rel
Hum
%
Delta-T
°C
Wind Press
QNH
hPa
Press
MSL
hPa
Rain
since 9 am
mm
Dir
 
Spd
km/h
Gust
km/h
Spd
kts
Gust
kts
17/11:30pm 17.1 19.1 16.1 94 0.6 CALM 0 0 0 0 1017.8 - 0.0
17/11:00pm 17.2 19.3 16.2 94 0.6 CALM 0 0 0 0 1017.9 1017.7 0.0
17/10:30pm 16.9 18.7 15.6 92 0.8 CALM 0 0 0 0 1017.9 - 0.0
17/10:00pm 17.7 19.7 16.0 90 1.0 CALM 0 0 0 0 1017.9 1017.7 0.0
17/09:30pm 17.7 19.7 15.9 89 1.1 CALM 0 0 0 0 1017.8 - 0.0
17/09:00pm 18.3 20.0 16.3 88 1.2 N 2 4 1 2 1017.9 1017.7 0.0
17/08:30pm 18.4 20.3 15.8 85 1.5 N 0 0 0 0 1017.6 - 0.0
17/08:00pm 19.0 21.0 16.0 83 1.8 CALM 0 0 0 0 1017.4 1017.2 0.0
17/07:30pm 20.1 22.1 15.9 77 2.5 CALM 0 0 0 0 1017.0 - 0.0
17/07:00pm 20.8 22.0 15.8 73 3.0 SE 4 6 2 3 1016.6 1016.4 0.0
17/06:30pm 21.7 22.9 15.8 69 3.5 E 4 7 2 4 1016.0 - 0.0
17/06:00pm 22.2 23.4 15.8 67 3.9 NE 4 7 2 4 1015.8 1015.6 0.0
17/05:30pm 22.6 23.2 15.7 65 4.2 E 7 15 4 8 1015.7 - 0.0
17/05:00pm 23.5 23.8 16.1 63 4.5 E 9 15 5 8 1015.2 1015.0 0.0
17/04:30pm 24.6 24.7 15.5 57 5.5 E 9 15 5 8 1014.8 - 0.0
17/04:00pm 25.9 26.0 15.6 53 6.3 E 9 17 5 9 1014.5 1014.3 0.0
17/03:30pm 27.5 28.8 15.2 47 7.5 NE 2 6 1 3 1014.5 - 0.0
17/03:00pm 25.9 26.7 14.7 50 6.7 N 4 6 2 3 1014.4 1014.2 0.0
17/02:30pm 25.8 26.3 14.0 48 7.0 N 4 4 2 2 1014.5 - 0.0
17/02:00pm 26.4 26.7 15.1 49 6.8 N 7 13 4 7 1014.7 1014.5 0.0
17/01:30pm 26.4 26.1 14.5 48 7.1 N 9 13 5 7 1014.9 - 0.0
17/01:00pm 25.5 26.2 16.1 56 5.8 N 7 13 4 7 1015.3 1015.1 0.0
17/12:30pm 25.9 26.7 15.9 54 6.1 N 6 9 3 5 1015.8 - 0.0
17/12:00pm 26.1 26.9 15.8 53 6.3 SSE 6 7 3 4 1016.3 1016.1 0.0
17/11:30am 25.4 26.1 15.7 55 5.9 WNW 6 13 3 7 1017.1 - 0.0
17/11:00am 24.9 25.8 15.2 54 5.8 N 4 9 2 5 1017.6 1017.4 0.0
17/10:30am 24.4 25.8 15.3 57 5.5 W 2 7 1 4 1018.1 - 0.0
17/10:00am 23.7 25.8 17.2 67 4.0 SW 2 4 1 2 1018.3 1018.1 0.0
17/09:30am 22.2 23.8 16.0 68 3.7 SSW 2 4 1 2 1018.5 - 0.0
17/09:00am 20.7 23.1 16.9 79 2.3 CALM 0 0 0 0 1018.6 1018.4 0.0
17/08:30am 19.9 22.3 16.9 83 1.8 CALM 0 0 0 0 1018.6 - 0.0
17/08:00am 18.4 20.4 16.0 86 1.4 CALM 0 0 0 0 1018.4 1018.2 0.0
17/07:30am 17.2 19.2 16.1 93 0.7 CALM 0 0 0 0 1018.2 - 0.0
17/07:00am 15.7 17.4 15.2 97 0.3 CALM 0 0 0 0 1018.0 1017.8 0.0
17/06:30am 15.5 17.1 15.0 97 0.3 CALM 0 0 0 0 1017.7 - 0.0
17/06:00am 15.4 17.0 14.9 97 0.3 CALM 0 0 0 0 1017.5 1017.3 0.0
17/05:30am 15.6 17.3 15.1 97 0.3 CALM 0 0 0 0 1017.2 - 0.0
17/05:00am 15.6 17.3 15.1 97 0.3 CALM 0 0 0 0 1017.1 1016.9 0.0
17/04:30am 15.3 16.9 14.8 97 0.3 CALM 0 0 0 0 1016.9 - 0.0
17/04:00am 14.8 16.2 14.3 97 0.3 CALM 0 0 0 0 1016.7 1016.5 0.0
17/03:30am 15.0 16.4 14.5 97 0.3 CALM 0 0 0 0 1016.5 - 0.0
17/03:00am 15.1 16.5 14.5 96 0.3 CALM 0 0 0 0 1016.5 1016.3 0.0
17/02:30am 15.3 16.8 14.7 96 0.3 CALM 0 0 0 0 1016.4 - 0.0
17/02:00am 15.4 17.0 14.8 96 0.3 CALM 0 0 0 0 1016.5 1016.3 0.0
17/01:30am 15.5 17.1 14.9 96 0.3 CALM 0 0 0 0 1016.6 - 0.0
17/01:00am 15.7 17.3 14.9 95 0.5 CALM 0 0 0 0 1016.9 1016.7 0.0
17/12:30am 16.1 17.8 15.3 95 0.5 CALM 0 0 0 0 1016.9 - 0.0
17/12:00am 16.4 18.2 15.4 94 0.6 CALM 0 0 0 0 1016.9 1016.7 0.0
 
Date/Time
EST
Temp
°C
App
Temp
°C
Dew
Point
Rel
Hum
%
Delta-T
°C
Wind Press
QNH
hPa
Press
MSL
hPa
Rain
since 9 am
mm
Dir
 
Spd
km/h
Gust
km/h
Spd
kts
Gust
kts
16/11:30pm 16.6 18.4 15.6 94 0.6 CALM 0 0 0 0 1016.9 - 0.0
16/11:00pm 16.7 18.6 15.7 94 0.6 CALM 0 0 0 0 1016.9 1016.7 0.0
16/10:30pm 16.9 18.8 15.8 93 0.6 CALM 0 0 0 0 1016.9 - 0.0
16/10:00pm 17.5 19.6 16.2 92 0.8 CALM 0 0 0 0 1017.1 1016.9 0.0
16/09:30pm 17.7 19.7 16.0 90 1.0 CALM 0 0 0 0 1017.0 - 0.0
16/09:00pm 18.1 20.1 15.9 87 1.3 CALM 0 0 0 0 1016.8 1016.6 0.0
16/08:30pm 18.7 20.7 16.1 85 1.6 CALM 0 0 0 0 1016.5 - 0.0
16/08:00pm 19.3 21.4 16.2 82 1.9 CALM 0 0 0 0 1016.2 1016.0 0.0
16/07:30pm 20.3 22.3 15.9 76 2.6 CALM 0 0 0 0 1015.7 - 0.0
16/07:00pm 20.8 22.0 15.8 73 3.0 ESE 4 7 2 4 1015.4 1015.2 0.0
16/06:30pm 21.3 23.1 15.6 70 3.4 CALM 0 2 0 1 1014.8 - 0.0
16/06:00pm 21.8 23.0 15.9 69 3.6 ESE 4 7 2 4 1014.7 1014.5 0.0
16/05:30pm 22.6 24.6 15.9 66 4.0 CALM 0 7 0 4 1014.0 - 0.0
16/05:00pm 23.4 24.5 15.5 61 4.8 ENE 4 7 2 4 1013.6 1013.4 0.0
16/04:30pm 24.7 25.7 15.3 56 5.7 SSE 4 13 2 7 1013.5 - 0.0
16/04:00pm 25.7 26.4 13.5 46 7.2 SSE 2 4 1 2 1013.1 1012.9 0.0
16/03:30pm 26.8 27.7 13.9 45 7.7 SSE 2 4 1 2 1013.1 - 0.0
16/03:00pm 25.9 26.6 13.4 46 7.3 NE 2 4 1 2 1013.2 1013.0 0.0
16/02:30pm 25.8 27.1 14.0 48 7.0 CALM 0 0 0 0 1013.3 - 0.0
16/02:00pm 25.2 25.6 13.7 49 6.8 ESE 4 6 2 3 1013.6 1013.4 0.0
16/01:30pm 25.1 25.0 13.3 48 6.9 SSE 6 9 3 5 1013.8 - 0.0
16/01:00pm 25.9 25.7 13.1 45 7.5 S 6 11 3 6 1014.1 1013.9 0.0
16/12:30pm 25.6 25.7 13.8 48 7.0 SSE 6 9 3 5 1014.5 - 0.0
16/12:00pm 25.0 24.8 12.9 47 7.0 S 6 11 3 6 1015.1 1014.9 0.0
16/11:30am 24.8 24.8 12.4 46 7.1 SE 4 7 2 4 1015.7 - 0.0
16/11:00am 24.2 23.8 12.5 48 6.7 E 6 9 3 5 1016.2 1016.0 0.0
16/10:30am 23.3 22.6 12.0 49 6.4 SE 7 11 4 6 1016.5 - 0.0
16/10:00am 22.9 22.9 14.2 58 5.1 SE 7 11 4 6 1017.0 1016.8 0.0
16/09:30am 21.9 23.3 15.5 67 3.8 SE 2 4 1 2 1017.2 - 0.0
16/09:00am 20.2 22.0 15.6 75 2.7 CALM 0 4 0 2 1017.3 1017.1 0.0
16/08:30am 19.4 21.4 15.9 80 2.1 CALM 0 0 0 0 1017.3 - 0.0
16/08:00am 17.9 19.6 15.3 85 1.5 CALM 0 2 0 1 1017.1 1016.9 0.0
16/07:30am 16.5 18.3 15.5 94 0.6 CALM 0 0 0 0 1016.8 - 0.0
16/07:00am 14.7 16.1 14.4 98 0.2 CALM 0 0 0 0 1016.4 1016.2 0.0
16/06:30am 13.9 15.0 13.4 97 0.3 CALM 0 0 0 0 1016.1 - 0.0
16/06:00am 13.9 15.0 13.4 97 0.3 CALM 0 0 0 0 1015.8 1015.6 0.0
16/05:30am 14.0 15.1 13.5 97 0.3 CALM 0 0 0 0 1015.6 - 0.0
16/05:00am 14.3 15.5 13.7 96 0.3 CALM 0 0 0 0 1015.4 1015.2 0.0
16/04:30am 14.4 15.6 13.8 96 0.3 CALM 0 0 0 0 1015.3 - 0.0
16/04:00am 14.3 15.4 13.5 95 0.4 CALM 0 0 0 0 1015.0 1014.8 0.0
16/03:30am 14.9 16.3 14.4 97 0.3 CALM 0 0 0 0 1015.0 - 0.0
16/03:00am 14.9 16.3 14.3 96 0.3 CALM 0 0 0 0 1015.1 1014.9 0.0
16/02:30am 15.2 16.6 14.4 95 0.5 CALM 0 0 0 0 1015.2 - 0.0
16/02:00am 15.3 16.7 14.5 95 0.5 CALM 0 0 0 0 1015.3 1015.1 0.0
16/01:30am 15.6 17.2 14.8 95 0.5 CALM 0 0 0 0 1015.6 - 0.0
16/01:00am 15.8 17.4 15.0 95 0.5 CALM 0 0 0 0 1016.0 1015.8 0.0
16/12:30am 16.2 18.0 15.4 95 0.5 CALM 0 0 0 0 1015.9 - 0.0
16/12:00am 16.3 18.0 15.2 93 0.6 CALM 0 0 0 0 1016.0 1015.8 0.0
 
Date/Time
EST
Temp
°C
App
Temp
°C
Dew
Point
Rel
Hum
%
Delta-T
°C
Wind Press
QNH
hPa
Press
MSL
hPa
Rain
since 9 am
mm
Dir
 
Spd
km/h
Gust
km/h
Spd
kts
Gust
kts
15/11:30pm 16.7 18.5 15.4 92 0.8 CALM 0 0 0 0 1016.3 - 0.0
15/11:00pm 16.9 18.7 15.6 92 0.8 CALM 0 0 0 0 1016.3 1016.1 0.0
15/10:30pm 17.3 19.2 15.8 91 0.9 CALM 0 0 0 0 1016.6 - 0.0
15/10:00pm 17.4 19.3 15.7 90 1.0 CALM 0 0 0 0 1016.4 1016.2 0.0
15/09:30pm 17.7 19.8 16.2 91 0.9 CALM 0 0 0 0 1016.3 - 0.0
15/09:00pm 18.3 20.3 16.1 87 1.3 CALM 0 0 0 0 1015.9 1015.7 0.0
15/08:30pm 18.6 20.7 16.2 86 1.4 CALM 0 0 0 0 1016.1 - 0.0
15/08:00pm 19.2 20.9 16.1 82 1.9 S 2 4 1 2 1016.0 1015.8 0.0
15/07:30pm 19.7 21.5 15.6 77 2.4 CALM 0 2 0 1 1015.7 - 0.0
15/07:00pm 19.8 21.3 15.7 77 2.4 SSE 2 4 1 2 1015.5 1015.3 0.0
15/06:30pm 20.3 21.4 15.7 75 2.7 SE 4 6 2 3 1015.3 - 0.0
15/06:00pm 21.2 21.9 16.0 72 3.1 SE 7 13 4 7 1014.9 1014.7 0.0
15/05:30pm 21.8 22.4 15.9 69 3.6 SE 7 13 4 7 1014.3 - 0.0
15/05:00pm 22.9 23.1 15.7 64 4.3 SSE 9 15 5 8 1013.9 1013.7 0.0
15/04:30pm 23.1 22.7 15.2 61 4.7 SE 11 19 6 10 1013.8 - 0.0
15/04:00pm 23.9 24.1 15.7 60 5.0 SE 9 19 5 10 1013.4 1013.2 0.0
15/03:30pm 24.6 24.4 15.8 58 5.4 SE 11 17 6 9 1013.5 - 0.0
15/03:00pm 24.5 24.3 15.7 58 5.3 SSE 11 19 6 10 1013.5 1013.3 0.0
15/02:30pm 25.2 25.4 15.8 56 5.7 SSE 9 20 5 11 1013.3 - 0.0
15/02:00pm 25.3 24.3 15.6 55 5.9 S 15 24 8 13 1013.2 1013.0 0.0
15/01:30pm 25.2 25.1 16.1 57 5.6 SE 11 20 6 11 1013.4 - 0.0
15/01:00pm 24.9 25.1 15.8 57 5.5 SSE 9 17 5 9 1013.6 1013.4 0.0
15/12:30pm 25.3 25.8 17.5 62 4.9 S 11 26 6 14 1014.0 - 0.0
15/12:00pm 25.1 24.4 16.3 58 5.4 SSE 15 24 8 13 1014.4 1014.2 0.0
15/11:30am 25.1 25.3 16.8 60 5.1 SE 11 20 6 11 1014.6 - 0.0
15/11:00am 25.2 24.4 16.1 57 5.6 SE 15 26 8 14 1014.8 1014.6 0.0
15/10:30am 24.0 22.7 15.8 60 5.0 SSE 17 28 9 15 1015.0 - 0.0

Other Formats:

Comma delimited format used in spreadsheet applications
http://www.bom.gov.au/fwo/IDQ60801/IDQ60801.94566.axf

JavaScript Object Notation format (JSON) in row-major order
http://www.bom.gov.au/fwo/IDQ60801/IDQ60801.94566.json